Time;durP1;ratioP1;P1;durP2;ratioP2;P2;SDS_P1;SDS_P2;PMS_P1;PMS_P2;Temp;Humidity;BMP_temperature;BMP_pressure;BME280_temperature;BME280_humidity;BME280_pressure;Samples;Min_cycle;Max_cycle;Signal;HPM_P1;HPM_P2
2023/05/08 00:00:18;;;;;;;;;;;19.20;41.80;;;;;;5074265;28;19927;-59
2023/05/08 00:02:45;;;;;;;;;;;19.20;41.80;;;;;;5074006;28;20407;-60
2023/05/08 00:05:11;;;;;;;;;;;19.20;41.80;;;;;;5092575;28;19977;-60
2023/05/08 00:07:38;;;;;;;;;;;19.20;41.80;;;;;;5074013;28;19959;-59
2023/05/08 00:10:07;;;;;;;;;;;19.20;41.80;;;;;;5091638;28;19924;-59
2023/05/08 00:12:34;;;;;;;;;;;19.20;41.80;;;;;;5075247;28;19955;-59
2023/05/08 00:15:01;;;;;;;;;;;19.30;41.80;;;;;;5091173;28;19920;-57
2023/05/08 00:17:27;;;;;;;;;;;19.30;41.80;;;;;;5074747;28;19942;-60
2023/05/08 00:19:54;;;;;;;;;;;19.30;41.80;;;;;;5091860;28;20265;-60
2023/05/08 00:22:21;;;;;;;;;;;19.30;41.80;;;;;;5090477;28;19920;-59
2023/05/08 00:24:48;;;;;;;;;;;19.30;41.80;;;;;;5094692;28;20428;-60
2023/05/08 00:27:16;;;;;;;;;;;19.30;41.80;;;;;;5076262;28;19927;-59
2023/05/08 00:29:43;;;;;;;;;;;19.30;41.80;;;;;;5073873;28;19920;-60
2023/05/08 00:32:10;;;;;;;;;;;19.30;41.80;;;;;;5074657;28;19954;-60
2023/05/08 00:34:36;;;;;;;;;;;19.30;41.80;;;;;;5073884;28;20327;-59
2023/05/08 00:37:03;;;;;;;;;;;19.30;41.80;;;;;;5074939;28;19950;-59
2023/05/08 00:39:30;;;;;;;;;;;19.30;41.70;;;;;;5074533;28;20439;-59
2023/05/08 00:41:57;;;;;;;;;;;19.30;41.70;;;;;;5073878;28;20300;-59
2023/05/08 00:44:25;;;;;;;;;;;19.30;41.70;;;;;;5074703;28;20323;-59
2023/05/08 00:46:52;;;;;;;;;;;19.30;41.70;;;;;;5077080;28;19927;-59
2023/05/08 00:49:19;;;;;;;;;;;19.30;41.70;;;;;;5074184;28;19927;-60
2023/05/08 00:51:46;;;;;;;;;;;19.40;41.80;;;;;;5073858;28;20370;-60
2023/05/08 00:54:13;;;;;;;;;;;19.40;41.80;;;;;;5093434;28;19924;-60
2023/05/08 00:56:40;;;;;;;;;;;19.40;41.80;;;;;;5075942;28;19959;-59
2023/05/08 00:59:08;;;;;;;;;;;19.40;41.70;;;;;;5093674;28;19920;-60
2023/05/08 01:01:36;;;;;;;;;;;19.40;41.70;;;;;;5074711;28;19970;-58
2023/05/08 01:04:03;;;;;;;;;;;19.40;41.70;;;;;;5090584;28;19920;-58
2023/05/08 01:06:30;;;;;;;;;;;19.40;41.70;;;;;;5090703;28;19947;-59
2023/05/08 01:08:57;;;;;;;;;;;19.40;41.70;;;;;;5072694;28;19982;-59
2023/05/08 01:11:25;;;;;;;;;;;19.40;41.70;;;;;;5073853;28;20362;-59
2023/05/08 01:13:52;;;;;;;;;;;19.40;41.60;;;;;;5090875;28;19920;-59
2023/05/08 01:16:20;;;;;;;;;;;19.40;41.60;;;;;;5074015;28;19920;-58
2023/05/08 01:18:51;;;;;;;;;;;19.40;41.60;;;;;;5072268;28;19920;-58
2023/05/08 01:21:20;;;;;;;;;;;19.40;41.60;;;;;;5072804;28;19924;-58
2023/05/08 01:23:53;;;;;;;;;;;19.40;41.60;;;;;;5073306;28;19924;-59
2023/05/08 01:26:39;;;;;;;;;;;19.40;41.60;;;;;;5073715;28;19924;-59
2023/05/08 01:29:33;;;;;;;;;;;19.40;41.50;;;;;;5092542;28;19920;-59
2023/05/08 01:32:11;;;;;;;;;;;19.40;41.50;;;;;;5080569;28;20400;-59
2023/05/08 01:34:38;;;;;;;;;;;19.40;41.50;;;;;;5090898;28;19928;-59
2023/05/08 01:37:06;;;;;;;;;;;19.40;41.40;;;;;;5072901;28;19946;-59
2023/05/08 01:39:34;;;;;;;;;;;19.40;41.40;;;;;;5076332;28;19920;-59
2023/05/08 01:42:02;;;;;;;;;;;19.40;41.40;;;;;;5075577;28;20015;-59
2023/05/08 01:44:30;;;;;;;;;;;19.40;41.40;;;;;;5076254;28;19997;-59
2023/05/08 01:46:57;;;;;;;;;;;19.40;41.30;;;;;;5076485;28;19920;-59
2023/05/08 01:49:26;;;;;;;;;;;19.40;41.30;;;;;;5076909;28;19936;-59
2023/05/08 01:51:54;;;;;;;;;;;19.40;41.30;;;;;;5094862;28;19927;-59
2023/05/08 01:54:22;;;;;;;;;;;19.40;41.30;;;;;;5076133;28;19978;-59
2023/05/08 01:56:48;;;;;;;;;;;19.40;41.30;;;;;;5076774;28;19920;-59
2023/05/08 01:59:16;;;;;;;;;;;19.40;41.20;;;;;;5095003;28;20336;-60
2023/05/08 02:01:43;;;;;;;;;;;19.40;41.20;;;;;;5093556;28;19924;-60
2023/05/08 02:04:09;;;;;;;;;;;19.40;41.20;;;;;;5090799;28;19924;-59
2023/05/08 02:06:37;;;;;;;;;;;19.40;41.20;;;;;;5094686;28;19920;-60
2023/05/08 02:09:04;;;;;;;;;;;19.40;41.10;;;;;;5092805;28;19920;-58
2023/05/08 02:11:31;;;;;;;;;;;19.40;41.10;;;;;;5075466;28;19927;-59
2023/05/08 02:13:58;;;;;;;;;;;19.40;41.10;;;;;;5092947;28;20267;-59
2023/05/08 02:16:25;;;;;;;;;;;19.40;41.10;;;;;;5076855;28;19973;-60
2023/05/08 02:18:52;;;;;;;;;;;19.40;41.10;;;;;;5096475;28;19920;-60
2023/05/08 02:21:19;;;;;;;;;;;19.40;41.00;;;;;;5095357;28;19965;-59
2023/05/08 02:23:47;;;;;;;;;;;19.40;41.00;;;;;;5093699;28;20278;-59
2023/05/08 02:26:14;;;;;;;;;;;19.40;40.90;;;;;;5096845;28;19920;-59
2023/05/08 02:28:41;;;;;;;;;;;19.40;40.90;;;;;;5076771;28;19974;-59
2023/05/08 02:31:08;;;;;;;;;;;19.40;40.90;;;;;;5096901;28;19920;-59
2023/05/08 02:33:35;;;;;;;;;;;19.40;40.90;;;;;;5093776;28;19948;-59
2023/05/08 02:36:01;;;;;;;;;;;19.40;40.90;;;;;;5076568;28;20274;-59
2023/05/08 02:38:28;;;;;;;;;;;19.40;40.90;;;;;;5096699;28;19966;-59
2023/05/08 02:40:57;;;;;;;;;;;19.40;40.80;;;;;;5076587;28;20334;-58
2023/05/08 02:43:23;;;;;;;;;;;19.40;40.80;;;;;;5079297;28;19920;-59
2023/05/08 02:45:52;;;;;;;;;;;19.40;40.80;;;;;;5079093;28;19927;-59
2023/05/08 02:48:22;;;;;;;;;;;19.40;40.80;;;;;;5078637;28;20219;-59
2023/05/08 02:50:51;;;;;;;;;;;19.40;40.80;;;;;;5076967;28;19920;-59
2023/05/08 02:53:18;;;;;;;;;;;19.40;40.70;;;;;;5096307;28;19927;-58
2023/05/08 02:55:46;;;;;;;;;;;19.40;40.70;;;;;;5076628;28;19920;-59
2023/05/08 02:58:17;;;;;;;;;;;19.30;40.60;;;;;;5095877;28;20015;-59
2023/05/08 03:00:45;;;;;;;;;;;19.30;40.50;;;;;;5096260;28;19920;-59
2023/05/08 03:03:13;;;;;;;;;;;19.30;40.50;;;;;;5094906;28;19924;-59
2023/05/08 03:05:40;;;;;;;;;;;19.40;40.60;;;;;;5078438;28;19923;-59
2023/05/08 03:08:07;;;;;;;;;;;19.30;40.50;;;;;;5078812;28;19920;-59
2023/05/08 03:10:34;;;;;;;;;;;19.30;40.40;;;;;;5076194;28;19927;-59
2023/05/08 03:13:02;;;;;;;;;;;19.40;41.10;;;;;;5078336;28;20363;-59
2023/05/08 03:15:32;;;;;;;;;;;19.30;40.30;;;;;;5076253;28;19924;-59
2023/05/08 03:18:00;;;;;;;;;;;19.30;40.30;;;;;;5078329;28;20258;-59
2023/05/08 03:20:27;;;;;;;;;;;19.30;40.30;;;;;;5076445;28;20251;-59
2023/05/08 03:22:54;;;;;;;;;;;19.30;40.30;;;;;;5078303;28;19959;-59
2023/05/08 03:25:21;;;;;;;;;;;19.30;40.30;;;;;;5073894;28;19935;-59
2023/05/08 03:27:47;;;;;;;;;;;19.30;40.90;;;;;;5075354;28;19973;-59
2023/05/08 03:30:14;;;;;;;;;;;19.30;40.30;;;;;;5075644;28;20300;-59
2023/05/08 03:32:44;;;;;;;;;;;19.30;40.20;;;;;;5095862;28;19924;-59
2023/05/08 03:35:11;;;;;;;;;;;19.30;40.30;;;;;;5078537;28;20014;-59
2023/05/08 03:37:37;;;;;;;;;;;19.30;40.20;;;;;;5094325;28;19986;-59
2023/05/08 03:40:04;;;;;;;;;;;19.30;40.20;;;;;;5073115;28;19923;-58
2023/05/08 03:42:31;;;;;;;;;;;19.30;40.20;;;;;;5092481;28;19924;-59
2023/05/08 03:44:58;;;;;;;;;;;19.30;40.30;;;;;;5092726;28;19920;-59
2023/05/08 03:47:25;;;;;;;;;;;19.30;40.30;;;;;;5091488;28;20315;-58
2023/05/08 03:49:53;;;;;;;;;;;19.30;40.30;;;;;;5094097;28;19926;-59
2023/05/08 03:52:20;;;;;;;;;;;19.30;40.30;;;;;;5077125;28;19966;-59
2023/05/08 03:54:47;;;;;;;;;;;19.30;40.20;;;;;;5075036;28;19920;-59
2023/05/08 03:57:17;;;;;;;;;;;19.30;40.30;;;;;;5090570;28;20377;-59
2023/05/08 03:59:46;;;;;;;;;;;19.30;40.20;;;;;;5074487;28;19927;-59
2023/05/08 04:02:16;;;;;;;;;;;19.30;40.20;;;;;;5075688;28;19920;-59
2023/05/08 04:04:43;;;;;;;;;;;19.30;40.10;;;;;;5075824;28;19924;-59
2023/05/08 04:07:12;;;;;;;;;;;19.30;40.20;;;;;;5077667;28;19967;-59
2023/05/08 04:09:39;;;;;;;;;;;19.30;40.20;;;;;;5076759;28;19920;-59
2023/05/08 04:12:09;;;;;;;;;;;19.30;40.20;;;;;;5072996;28;19920;-59
2023/05/08 04:14:37;;;;;;;;;;;19.30;40.30;;;;;;5092483;28;19927;-59
2023/05/08 04:17:07;;;;;;;;;;;19.30;40.20;;;;;;5092546;28;19920;-59
2023/05/08 04:19:34;;;;;;;;;;;19.30;40.20;;;;;;5076671;28;20010;-59
2023/05/08 04:22:02;;;;;;;;;;;19.30;40.20;;;;;;5077380;28;20018;-59
2023/05/08 04:24:30;;;;;;;;;;;19.30;40.20;;;;;;5094899;28;19927;-59
2023/05/08 04:26:59;;;;;;;;;;;19.30;40.20;;;;;;5076587;28;20235;-59
2023/05/08 04:29:26;;;;;;;;;;;19.30;40.20;;;;;;5074877;28;20003;-59
2023/05/08 04:31:53;;;;;;;;;;;19.30;40.20;;;;;;5093402;28;19974;-59
2023/05/08 04:34:19;;;;;;;;;;;19.30;40.20;;;;;;5092879;28;20297;-59
2023/05/08 04:36:47;;;;;;;;;;;19.30;40.20;;;;;;5074615;28;19924;-58
2023/05/08 04:39:14;;;;;;;;;;;19.30;40.20;;;;;;5093199;28;20023;-59
2023/05/08 04:41:42;;;;;;;;;;;19.30;40.20;;;;;;5074330;28;19924;-59
2023/05/08 04:44:10;;;;;;;;;;;19.30;40.20;;;;;;5072475;28;19924;-58
2023/05/08 04:46:39;;;;;;;;;;;19.30;40.30;;;;;;5092033;28;19920;-59
2023/05/08 04:49:06;;;;;;;;;;;19.30;40.30;;;;;;5072643;28;19920;-57
2023/05/08 04:51:32;;;;;;;;;;;19.30;40.30;;;;;;5091462;28;19931;-59
2023/05/08 04:54:02;;;;;;;;;;;19.30;40.30;;;;;;5073249;28;19965;-59
2023/05/08 04:56:29;;;;;;;;;;;19.30;40.30;;;;;;5072582;28;19927;-59
2023/05/08 04:58:57;;;;;;;;;;;19.30;40.30;;;;;;5073535;28;19920;-59
2023/05/08 05:01:24;;;;;;;;;;;19.30;40.30;;;;;;5072350;28;19927;-59
2023/05/08 05:03:50;;;;;;;;;;;19.30;40.20;;;;;;5092220;28;19924;-59
2023/05/08 05:06:17;;;;;;;;;;;19.30;40.20;;;;;;5072794;28;20332;-59
2023/05/08 05:08:44;;;;;;;;;;;19.30;40.10;;;;;;5091876;28;19924;-59
2023/05/08 05:11:10;;;;;;;;;;;19.30;40.20;;;;;;5073257;28;19920;-59
2023/05/08 05:13:37;;;;;;;;;;;19.30;40.20;;;;;;5072888;28;19927;-59
2023/05/08 05:16:06;;;;;;;;;;;19.30;40.20;;;;;;5072261;28;19969;-59
2023/05/08 05:18:32;;;;;;;;;;;19.30;40.20;;;;;;5066617;28;19928;-59
2023/05/08 05:20:59;;;;;;;;;;;19.30;40.20;;;;;;5090708;28;19920;-59
2023/05/08 05:23:26;;;;;;;;;;;19.30;40.20;;;;;;5072623;28;19933;-58
2023/05/08 05:25:53;;;;;;;;;;;19.30;40.10;;;;;;5091062;28;19924;-59
2023/05/08 05:28:19;;;;;;;;;;;19.30;40.10;;;;;;5074302;28;19969;-59
2023/05/08 05:30:46;;;;;;;;;;;19.30;40.10;;;;;;5071882;28;19920;-59
2023/05/08 05:33:15;;;;;;;;;;;19.30;40.10;;;;;;5073766;28;20239;-59
2023/05/08 05:35:42;;;;;;;;;;;19.30;40.10;;;;;;5076139;28;19920;-59
2023/05/08 05:38:09;;;;;;;;;;;19.30;40.10;;;;;;5075685;28;19927;-59
2023/05/08 05:40:35;;;;;;;;;;;19.30;40.10;;;;;;5092528;28;19924;-59
2023/05/08 05:43:02;;;;;;;;;;;19.30;40.10;;;;;;5092184;28;19946;-59
2023/05/08 05:45:29;;;;;;;;;;;19.30;40.10;;;;;;5075804;28;19937;-59
2023/05/08 05:47:56;;;;;;;;;;;19.30;40.10;;;;;;5073953;28;19974;-59
2023/05/08 05:50:25;;;;;;;;;;;19.30;40.20;;;;;;5075398;28;19977;-60
2023/05/08 05:52:52;;;;;;;;;;;19.30;40.20;;;;;;5073932;28;19920;-60
2023/05/08 05:55:18;;;;;;;;;;;19.30;40.20;;;;;;5076630;28;19921;-59
2023/05/08 05:57:46;;;;;;;;;;;19.30;40.80;;;;;;5075589;28;19942;-59
2023/05/08 06:00:13;;;;;;;;;;;19.30;40.30;;;;;;5076127;28;19930;-59
2023/05/08 06:02:40;;;;;;;;;;;19.30;40.30;;;;;;5093338;28;20305;-59
2023/05/08 06:05:07;;;;;;;;;;;19.30;40.30;;;;;;5075950;28;20019;-59
2023/05/08 06:07:35;;;;;;;;;;;19.30;40.30;;;;;;5093369;28;20354;-59
2023/05/08 06:10:02;;;;;;;;;;;19.30;40.30;;;;;;5074189;28;19963;-58
2023/05/08 06:12:29;;;;;;;;;;;19.30;40.30;;;;;;5075490;28;19920;-59
2023/05/08 06:14:56;;;;;;;;;;;19.30;40.30;;;;;;5090362;28;19934;-59
2023/05/08 06:17:23;;;;;;;;;;;19.30;40.30;;;;;;5093484;28;20275;-59
2023/05/08 06:19:52;;;;;;;;;;;19.30;40.30;;;;;;5072590;28;19920;-59
2023/05/08 06:22:21;;;;;;;;;;;19.30;40.30;;;;;;5076097;28;19920;-59
2023/05/08 06:24:52;;;;;;;;;;;19.30;40.30;;;;;;5090016;28;19923;-59
2023/05/08 06:27:18;;;;;;;;;;;19.30;40.30;;;;;;5075314;28;20012;-59
2023/05/08 06:29:45;;;;;;;;;;;19.30;40.30;;;;;;5094165;28;19996;-59
2023/05/08 06:32:12;;;;;;;;;;;19.30;40.30;;;;;;5077114;28;20354;-58
2023/05/08 06:34:39;;;;;;;;;;;19.30;40.40;;;;;;5078874;28;19920;-59
2023/05/08 06:37:05;;;;;;;;;;;19.30;40.40;;;;;;5077253;28;19920;-59
2023/05/08 06:39:32;;;;;;;;;;;19.40;40.60;;;;;;5076962;28;19931;-58
2023/05/08 06:42:00;;;;;;;;;;;19.30;40.50;;;;;;5095967;28;19965;-58
2023/05/08 06:44:27;;;;;;;;;;;19.40;40.60;;;;;;5078480;28;19920;-59
2023/05/08 06:46:54;;;;;;;;;;;19.40;40.70;;;;;;5080894;28;19921;-60
2023/05/08 06:49:21;;;;;;;;;;;19.40;40.60;;;;;;5076350;28;19920;-58
2023/05/08 06:51:48;;;;;;;;;;;19.40;40.60;;;;;;5074925;28;19951;-59
2023/05/08 06:54:15;;;;;;;;;;;19.40;40.60;;;;;;5058420;28;19920;-59
2023/05/08 06:56:42;;;;;;;;;;;19.40;40.70;;;;;;5058343;28;19927;-59
2023/05/08 06:59:10;;;;;;;;;;;19.40;40.70;;;;;;5059138;28;19920;-59
2023/05/08 07:01:37;;;;;;;;;;;19.40;40.70;;;;;;5078664;28;19924;-58
2023/05/08 07:04:04;;;;;;;;;;;19.40;40.70;;;;;;5079067;28;20326;-60
2023/05/08 07:06:31;;;;;;;;;;;19.50;40.80;;;;;;5076001;28;19924;-59
2023/05/08 07:09:00;;;;;;;;;;;19.50;40.80;;;;;;5095760;28;19946;-59
2023/05/08 07:11:27;;;;;;;;;;;19.50;40.80;;;;;;5076692;28;19965;-59
2023/05/08 07:13:54;;;;;;;;;;;19.50;40.90;;;;;;5094658;28;19920;-58
2023/05/08 07:16:22;;;;;;;;;;;19.50;40.90;;;;;;5096212;28;19920;-59
2023/05/08 07:18:49;;;;;;;;;;;19.50;40.90;;;;;;5094063;28;19942;-58
2023/05/08 07:21:17;;;;;;;;;;;19.50;40.90;;;;;;5094228;28;20475;-59
2023/05/08 07:23:44;;;;;;;;;;;19.50;40.90;;;;;;5094926;28;19928;-59
2023/05/08 07:26:11;;;;;;;;;;;19.50;40.90;;;;;;5076366;28;19920;-59
2023/05/08 07:28:37;;;;;;;;;;;19.60;41.00;;;;;;5092864;28;19927;-58
2023/05/08 07:31:04;;;;;;;;;;;19.60;41.60;;;;;;5092281;28;19920;-57
2023/05/08 07:33:32;;;;;;;;;;;19.60;41.00;;;;;;5074690;28;19920;-58
2023/05/08 07:35:59;;;;;;;;;;;19.60;40.90;;;;;;5075587;28;19924;-58
2023/05/08 07:38:26;;;;;;;;;;;19.60;40.90;;;;;;5091836;28;19920;-59
2023/05/08 07:40:55;;;;;;;;;;;19.60;40.90;;;;;;5075874;28;19924;-59
2023/05/08 07:43:22;;;;;;;;;;;19.60;40.90;;;;;;5076091;28;20415;-59
2023/05/08 07:45:49;;;;;;;;;;;19.60;40.90;;;;;;5074069;28;19973;-59
2023/05/08 07:48:16;;;;;;;;;;;19.60;41.50;;;;;;5074369;28;19924;-58
2023/05/08 07:50:44;;;;;;;;;;;19.60;41.00;;;;;;5071153;28;19920;-59
2023/05/08 07:53:13;;;;;;;;;;;19.60;40.90;;;;;;5074438;28;20435;-59
2023/05/08 07:55:39;;;;;;;;;;;19.60;41.00;;;;;;5089188;28;19989;-58
2023/05/08 07:58:06;;;;;;;;;;;19.60;41.20;;;;;;5071641;28;19932;-57
2023/05/08 08:00:33;;;;;;;;;;;19.60;41.00;;;;;;5091712;28;20358;-60
2023/05/08 08:03:00;;;;;;;;;;;19.60;41.00;;;;;;5073826;28;19970;-60
2023/05/08 08:05:27;;;;;;;;;;;19.60;41.00;;;;;;5089383;28;19932;-58
2023/05/08 08:07:55;;;;;;;;;;;19.60;41.00;;;;;;5092054;28;19950;-59
2023/05/08 08:10:22;;;;;;;;;;;19.60;41.00;;;;;;5089665;28;19942;-59
2023/05/08 08:12:49;;;;;;;;;;;19.60;41.00;;;;;;5073516;28;19924;-59
2023/05/08 08:15:15;;;;;;;;;;;19.60;41.10;;;;;;5092722;28;19945;-59
2023/05/08 08:17:42;;;;;;;;;;;19.70;41.10;;;;;;5072978;28;19920;-59
2023/05/08 08:20:09;;;;;;;;;;;19.70;41.10;;;;;;5089148;28;19924;-59
2023/05/08 08:22:37;;;;;;;;;;;19.70;41.10;;;;;;5091564;28;19973;-60
2023/05/08 08:25:06;;;;;;;;;;;19.70;41.10;;;;;;5094307;28;19920;-59
2023/05/08 08:27:33;;;;;;;;;;;19.70;41.10;;;;;;5091902;28;19985;-59
2023/05/08 08:30:00;;;;;;;;;;;19.70;41.20;;;;;;5094251;28;19920;-59
2023/05/08 08:32:26;;;;;;;;;;;19.70;41.10;;;;;;5094662;28;19920;-59
2023/05/08 08:34:55;;;;;;;;;;;19.70;41.20;;;;;;5094229;28;19928;-59
2023/05/08 08:37:22;;;;;;;;;;;19.70;41.10;;;;;;5093151;28;19920;-60
2023/05/08 08:39:49;;;;;;;;;;;19.70;41.10;;;;;;5093347;28;19962;-60
2023/05/08 08:42:17;;;;;;;;;;;19.70;41.10;;;;;;5095243;28;20274;-60
2023/05/08 08:44:44;;;;;;;;;;;19.70;41.10;;;;;;5089425;28;19924;-59
2023/05/08 08:47:11;;;;;;;;;;;19.70;41.10;;;;;;5075425;28;19966;-60
2023/05/08 08:49:41;;;;;;;;;;;19.70;41.10;;;;;;5079167;28;20022;-58
2023/05/08 08:52:13;;;;;;;;;;;19.80;41.20;;;;;;5092415;28;20316;-58
2023/05/08 08:54:40;;;;;;;;;;;19.70;41.10;;;;;;5094112;28;20011;-59
2023/05/08 08:57:07;;;;;;;;;;;19.80;41.20;;;;;;5090720;28;19959;-59
2023/05/08 08:59:35;;;;;;;;;;;19.80;41.20;;;;;;5074369;28;19946;-59
2023/05/08 09:02:05;;;;;;;;;;;19.80;41.30;;;;;;5092304;28;19921;-59
2023/05/08 09:04:32;;;;;;;;;;;19.80;41.30;;;;;;5090011;28;19920;-59
2023/05/08 09:07:00;;;;;;;;;;;19.80;41.20;;;;;;5058209;28;19920;-60
2023/05/08 09:09:27;;;;;;;;;;;19.80;41.20;;;;;;5072877;28;19943;-59
2023/05/08 09:11:54;;;;;;;;;;;19.80;41.20;;;;;;5073471;28;20381;-59
2023/05/08 09:14:21;;;;;;;;;;;19.80;41.20;;;;;;5078605;28;19928;-58
2023/05/08 09:16:49;;;;;;;;;;;19.80;41.20;;;;;;5073787;28;19920;-59
2023/05/08 09:19:15;;;;;;;;;;;19.80;41.30;;;;;;5072105;28;19969;-58
2023/05/08 09:21:42;;;;;;;;;;;19.80;41.30;;;;;;5073274;28;19920;-58
2023/05/08 09:24:09;;;;;;;;;;;19.80;41.20;;;;;;5093111;28;19923;-57
2023/05/08 09:26:36;;;;;;;;;;;19.80;41.30;;;;;;5093618;28;19943;-58
2023/05/08 09:29:10;;;;;;;;;;;19.80;41.30;;;;;;5088217;28;20270;-55
2023/05/08 09:31:38;;;;;;;;;;;19.80;41.30;;;;;;5080962;28;19927;-60
2023/05/08 09:34:07;;;;;;;;;;;19.80;41.30;;;;;;5089546;28;20046;-58
2023/05/08 09:36:34;;;;;;;;;;;19.80;41.30;;;;;;5086932;28;20340;-59
2023/05/08 09:39:01;;;;;;;;;;;19.80;41.30;;;;;;5096120;28;20255;-59
2023/05/08 09:41:27;;;;;;;;;;;19.80;41.30;;;;;;5113059;28;19965;-59
2023/05/08 09:44:01;;;;;;;;;;;19.80;41.20;;;;;;5080789;28;20366;-60
2023/05/08 09:46:28;;;;;;;;;;;19.80;41.20;;;;;;5075441;28;19920;-60
2023/05/08 09:48:55;;;;;;;;;;;19.90;41.30;;;;;;5092124;28;19924;-59
2023/05/08 09:51:23;;;;;;;;;;;19.90;41.30;;;;;;5092051;28;19921;-59
2023/05/08 09:53:50;;;;;;;;;;;19.90;41.30;;;;;;5093691;28;20308;-59
2023/05/08 09:56:28;;;;;;;;;;;19.90;41.30;;;;;;5076207;28;19970;-59
2023/05/08 09:58:55;;;;;;;;;;;19.90;41.30;;;;;;5093922;28;19969;-59
2023/05/08 10:01:28;;;;;;;;;;;19.90;41.30;;;;;;5095498;28;19920;-59
2023/05/08 10:03:55;;;;;;;;;;;19.90;41.30;;;;;;5079273;28;19992;-59
2023/05/08 10:06:23;;;;;;;;;;;19.90;41.30;;;;;;5097546;28;19927;-59
2023/05/08 10:09:05;;;;;;;;;;;19.90;41.30;;;;;;5079207;28;19920;-59
2023/05/08 10:11:32;;;;;;;;;;;19.90;41.30;;;;;;5096226;28;20006;-58
2023/05/08 10:14:00;;;;;;;;;;;19.90;41.30;;;;;;5097092;28;19927;-58
2023/05/08 10:16:26;;;;;;;;;;;19.90;41.30;;;;;;5097712;28;19920;-59
2023/05/08 10:18:55;;;;;;;;;;;19.90;41.30;;;;;;5095449;28;19920;-59
2023/05/08 10:21:23;;;;;;;;;;;19.90;41.30;;;;;;5066310;28;19924;-59
2023/05/08 10:23:50;;;;;;;;;;;19.90;41.30;;;;;;5094222;28;19964;-59
2023/05/08 10:26:20;;;;;;;;;;;19.90;41.30;;;;;;5077537;28;19921;-59
2023/05/08 10:28:49;;;;;;;;;;;19.90;41.30;;;;;;5093818;28;20014;-59
2023/05/08 10:31:17;;;;;;;;;;;19.90;41.30;;;;;;5092580;28;19920;-59
2023/05/08 10:33:44;;;;;;;;;;;19.90;41.30;;;;;;5095761;28;19981;-59
2023/05/08 10:36:12;;;;;;;;;;;19.90;41.30;;;;;;5078716;28;19924;-60
2023/05/08 10:38:40;;;;;;;;;;;19.90;41.30;;;;;;5093984;28;19920;-59
2023/05/08 10:41:07;;;;;;;;;;;19.90;41.40;;;;;;5094771;28;19924;-58
2023/05/08 10:43:33;;;;;;;;;;;19.90;41.40;;;;;;5077041;28;19920;-58
2023/05/08 10:46:02;;;;;;;;;;;19.90;41.40;;;;;;5079655;28;19920;-58
2023/05/08 10:48:31;;;;;;;;;;;20.00;41.50;;;;;;5077090;28;19927;-57
2023/05/08 10:50:59;;;;;;;;;;;20.00;41.00;;;;;;5096932;28;19926;-57
2023/05/08 10:53:29;;;;;;;;;;;19.90;40.40;;;;;;5094992;28;19919;-58
2023/05/08 10:55:57;;;;;;;;;;;19.90;40.10;;;;;;5092138;28;19931;-57
2023/05/08 10:58:30;;;;;;;;;;;19.90;39.90;;;;;;5092691;28;19920;-57
2023/05/08 11:01:13;;;;;;;;;;;19.80;39.50;;;;;;5091248;28;19928;-57
2023/05/08 11:03:41;;;;;;;;;;;19.80;39.30;;;;;;5094706;28;19920;-58
2023/05/08 11:06:08;;;;;;;;;;;19.70;39.10;;;;;;5096465;28;19974;-58
2023/05/08 11:08:38;;;;;;;;;;;19.70;38.90;;;;;;5093065;28;19943;-58
2023/05/08 11:11:06;;;;;;;;;;;19.60;38.90;;;;;;5081869;28;19927;-58
2023/05/08 11:13:34;;;;;;;;;;;19.60;38.70;;;;;;5093165;28;19920;-58
2023/05/08 11:16:01;;;;;;;;;;;19.50;38.70;;;;;;5099391;28;20415;-58
2023/05/08 11:18:27;;;;;;;;;;;19.50;38.60;;;;;;5076416;28;19920;-58
2023/05/08 11:20:55;;;;;;;;;;;19.40;38.60;;;;;;5072294;28;19948;-58
2023/05/08 11:23:22;;;;;;;;;;;19.40;38.40;;;;;;5078665;28;19927;-58
2023/05/08 11:25:49;;;;;;;;;;;19.40;38.30;;;;;;5078824;28;19920;-58
2023/05/08 11:28:17;;;;;;;;;;;19.30;38.20;;;;;;5077664;28;19924;-58
2023/05/08 11:30:44;;;;;;;;;;;19.30;38.00;;;;;;5096248;28;19919;-58
2023/05/08 11:33:15;;;;;;;;;;;19.30;38.00;;;;;;5077727;28;20312;-58
2023/05/08 11:35:51;;;;;;;;;;;19.30;38.00;;;;;;5092393;28;19920;-59
2023/05/08 11:38:18;;;;;;;;;;;19.20;37.90;;;;;;5076039;28;19942;-58
2023/05/08 11:40:45;;;;;;;;;;;19.20;37.60;;;;;;5074868;28;19920;-59
2023/05/08 11:43:31;;;;;;;;;;;19.20;37.50;;;;;;5094086;28;19942;-59
2023/05/08 11:46:00;;;;;;;;;;;19.20;37.70;;;;;;5075876;28;20274;-59
2023/05/08 11:48:26;;;;;;;;;;;19.20;37.90;;;;;;5077067;28;20002;-59
2023/05/08 11:50:53;;;;;;;;;;;19.20;37.90;;;;;;5075094;28;20313;-60
2023/05/08 11:53:20;;;;;;;;;;;19.20;37.90;;;;;;5093358;28;19966;-59
2023/05/08 11:55:47;;;;;;;;;;;19.20;37.80;;;;;;5087211;28;20477;-59
2023/05/08 11:58:14;;;;;;;;;;;19.20;37.70;;;;;;5083598;28;19924;-59
2023/05/08 12:00:43;;;;;;;;;;;19.20;37.40;;;;;;5092177;28;19927;-59
2023/05/08 12:03:13;;;;;;;;;;;19.20;37.40;;;;;;5075287;28;19920;-59
2023/05/08 12:05:40;;;;;;;;;;;19.20;37.30;;;;;;5078038;28;20019;-59
2023/05/08 12:08:06;;;;;;;;;;;19.10;37.30;;;;;;5063961;28;19924;-59
2023/05/08 12:10:39;;;;;;;;;;;19.10;37.40;;;;;;5073488;28;19986;-60
2023/05/08 12:13:15;;;;;;;;;;;19.10;37.50;;;;;;5074155;28;19955;-58
2023/05/08 12:15:42;;;;;;;;;;;19.10;37.40;;;;;;5093860;28;19965;-60
2023/05/08 12:18:08;;;;;;;;;;;19.10;37.30;;;;;;5090674;28;19941;-57
2023/05/08 12:20:37;;;;;;;;;;;19.10;37.30;;;;;;5093728;28;19942;-59
2023/05/08 12:23:03;;;;;;;;;;;19.10;37.30;;;;;;5093060;28;19927;-59
2023/05/08 12:25:30;;;;;;;;;;;19.10;37.30;;;;;;5077588;28;19927;-57
2023/05/08 12:27:58;;;;;;;;;;;19.10;37.40;;;;;;5058433;28;19924;-59
2023/05/08 12:30:25;;;;;;;;;;;19.10;37.30;;;;;;5089969;28;19927;-59
2023/05/08 12:32:52;;;;;;;;;;;19.10;37.10;;;;;;5093778;28;19930;-59
2023/05/08 12:35:18;;;;;;;;;;;19.10;36.90;;;;;;5090703;28;19920;-59
2023/05/08 12:37:49;;;;;;;;;;;19.10;36.90;;;;;;5091655;28;19962;-58
2023/05/08 12:40:23;;;;;;;;;;;19.10;36.90;;;;;;5092799;28;19927;-58
2023/05/08 12:42:50;;;;;;;;;;;19.10;36.90;;;;;;5092539;28;19920;-59
2023/05/08 12:45:17;;;;;;;;;;;19.10;37.00;;;;;;5076964;28;19924;-59
2023/05/08 12:47:48;;;;;;;;;;;19.10;36.90;;;;;;5092875;28;19927;-59
2023/05/08 12:50:15;;;;;;;;;;;19.10;36.90;;;;;;5092270;28;19924;-60
2023/05/08 12:52:41;;;;;;;;;;;19.10;37.00;;;;;;5094894;28;19981;-58
2023/05/08 12:55:21;;;;;;;;;;;19.10;37.10;;;;;;5094807;28;19927;-59
2023/05/08 12:57:48;;;;;;;;;;;19.10;37.10;;;;;;5095025;28;19949;-60
2023/05/08 13:00:15;;;;;;;;;;;19.10;37.20;;;;;;5091969;28;19970;-60
2023/05/08 13:02:51;;;;;;;;;;;19.10;37.20;;;;;;5093637;28;19920;-59
2023/05/08 13:05:18;;;;;;;;;;;19.10;37.20;;;;;;5076469;28;20015;-61
2023/05/08 13:07:45;;;;;;;;;;;19.20;37.20;;;;;;5092378;28;19928;-56
2023/05/08 13:10:12;;;;;;;;;;;19.20;37.30;;;;;;5093727;28;19967;-60
2023/05/08 13:12:40;;;;;;;;;;;19.20;37.30;;;;;;5077113;28;19920;-58
2023/05/08 13:15:08;;;;;;;;;;;19.20;37.30;;;;;;5087497;28;19981;-59
2023/05/08 13:17:35;;;;;;;;;;;19.20;37.10;;;;;;5092218;28;19920;-58
2023/05/08 13:20:03;;;;;;;;;;;19.20;37.00;;;;;;5095433;28;19920;-58
2023/05/08 13:22:29;;;;;;;;;;;19.20;36.80;;;;;;5094165;28;20255;-60
2023/05/08 13:24:56;;;;;;;;;;;19.20;36.80;;;;;;5092598;28;19927;-58
2023/05/08 13:27:23;;;;;;;;;;;19.20;36.90;;;;;;5093011;28;19920;-62
2023/05/08 13:29:51;;;;;;;;;;;19.20;37.00;;;;;;5090651;28;19924;-61
2023/05/08 13:32:18;;;;;;;;;;;19.20;37.00;;;;;;5075240;28;19931;-61
2023/05/08 13:34:45;;;;;;;;;;;19.20;37.30;;;;;;5075133;28;19969;-62
2023/05/08 13:37:11;;;;;;;;;;;19.20;37.40;;;;;;5095790;28;19921;-63
2023/05/08 13:39:38;;;;;;;;;;;19.30;37.60;;;;;;5098932;28;20007;-63
2023/05/08 13:42:05;;;;;;;;;;;19.30;37.70;;;;;;5080853;28;19920;-61
2023/05/08 13:44:32;;;;;;;;;;;19.30;37.80;;;;;;5080707;28;19920;-61
2023/05/08 13:47:00;;;;;;;;;;;19.40;37.90;;;;;;5059183;28;20255;-61
2023/05/08 13:49:27;;;;;;;;;;;19.40;38.00;;;;;;5094338;28;19924;-62
2023/05/08 13:51:53;;;;;;;;;;;19.40;38.00;;;;;;5093303;28;19920;-61
2023/05/08 13:54:20;;;;;;;;;;;19.50;38.10;;;;;;5092554;28;20007;-61
2023/05/08 13:56:48;;;;;;;;;;;19.50;38.20;;;;;;5075674;28;19932;-62
2023/05/08 13:59:15;;;;;;;;;;;19.50;38.20;;;;;;5094380;28;19923;-61
2023/05/08 14:01:42;;;;;;;;;;;19.60;38.30;;;;;;5093975;28;19920;-61
2023/05/08 14:04:10;;;;;;;;;;;19.60;38.40;;;;;;5094476;28;19976;-62
2023/05/08 14:06:37;;;;;;;;;;;19.60;38.40;;;;;;5086855;28;20323;-62
2023/05/08 14:09:04;;;;;;;;;;;19.60;38.50;;;;;;5090761;28;19924;-61
2023/05/08 14:11:30;;;;;;;;;;;19.70;38.60;;;;;;5074206;28;20011;-60
2023/05/08 14:13:57;;;;;;;;;;;19.70;38.60;;;;;;5097475;28;19924;-61
2023/05/08 14:16:24;;;;;;;;;;;19.70;38.70;;;;;;5095708;28;19920;-61
2023/05/08 14:18:50;;;;;;;;;;;19.70;38.70;;;;;;5094609;28;19928;-60